sensor_id;sensor_type;location;lat;lon;timestamp;P1;durP1;ratioP1;P2;durP2;ratioP2
19402;SDS011;9837;48.888;8.998;2023-04-07T00:00:01;14.17;;;9.90;;
19402;SDS011;9837;48.888;8.998;2023-04-07T00:02:28;17.10;;;9.90;;
19402;SDS011;9837;48.888;8.998;2023-04-07T00:04:54;15.33;;;10.70;;
19402;SDS011;9837;48.888;8.998;2023-04-07T00:07:22;13.50;;;11.00;;
19402;SDS011;9837;48.888;8.998;2023-04-07T00:09:47;13.23;;;10.13;;
19402;SDS011;9837;48.888;8.998;2023-04-07T00:12:13;14.50;;;8.83;;
19402;SDS011;9837;48.888;8.998;2023-04-07T00:14:40;15.27;;;10.73;;
19402;SDS011;9837;48.888;8.998;2023-04-07T00:17:05;13.23;;;11.20;;
19402;SDS011;9837;48.888;8.998;2023-04-07T00:19:31;13.87;;;10.50;;
19402;SDS011;9837;48.888;8.998;2023-04-07T00:21:57;17.50;;;14.63;;
19402;SDS011;9837;48.888;8.998;2023-04-07T00:24:23;12.07;;;9.67;;
19402;SDS011;9837;48.888;8.998;2023-04-07T00:26:49;15.00;;;9.33;;
19402;SDS011;9837;48.888;8.998;2023-04-07T00:29:14;14.70;;;9.57;;
19402;SDS011;9837;48.888;8.998;2023-04-07T00:31:40;14.60;;;10.60;;
19402;SDS011;9837;48.888;8.998;2023-04-07T00:34:06;13.27;;;9.53;;
19402;SDS011;9837;48.888;8.998;2023-04-07T00:36:34;16.07;;;11.20;;
19402;SDS011;9837;48.888;8.998;2023-04-07T00:39:00;14.63;;;10.27;;
19402;SDS011;9837;48.888;8.998;2023-04-07T00:41:25;15.80;;;10.63;;
19402;SDS011;9837;48.888;8.998;2023-04-07T00:43:51;13.73;;;9.87;;
19402;SDS011;9837;48.888;8.998;2023-04-07T00:46:18;15.27;;;10.17;;
19402;SDS011;9837;48.888;8.998;2023-04-07T00:48:46;13.50;;;9.20;;
19402;SDS011;9837;48.888;8.998;2023-04-07T00:51:11;14.13;;;8.87;;
19402;SDS011;9837;48.888;8.998;2023-04-07T00:53:37;12.47;;;9.20;;
19402;SDS011;9837;48.888;8.998;2023-04-07T00:56:03;11.40;;;8.03;;
19402;SDS011;9837;48.888;8.998;2023-04-07T00:58:29;11.03;;;8.57;;
19402;SDS011;9837;48.888;8.998;2023-04-07T01:01:02;23.80;;;13.97;;
19402;SDS011;9837;48.888;8.998;2023-04-07T01:03:33;16.80;;;10.03;;
19402;SDS011;9837;48.888;8.998;2023-04-07T01:06:10;14.57;;;10.00;;
19402;SDS011;9837;48.888;8.998;2023-04-07T01:08:52;16.13;;;9.90;;
19402;SDS011;9837;48.888;8.998;2023-04-07T01:11:29;19.23;;;12.17;;
19402;SDS011;9837;48.888;8.998;2023-04-07T01:14:01;14.53;;;9.70;;
19402;SDS011;9837;48.888;8.998;2023-04-07T01:16:29;17.33;;;12.60;;
19402;SDS011;9837;48.888;8.998;2023-04-07T01:19:03;14.13;;;9.83;;
19402;SDS011;9837;48.888;8.998;2023-04-07T01:21:38;16.90;;;12.47;;
19402;SDS011;9837;48.888;8.998;2023-04-07T01:26:50;13.67;;;9.27;;
19402;SDS011;9837;48.888;8.998;2023-04-07T01:31:58;15.90;;;9.33;;
19402;SDS011;9837;48.888;8.998;2023-04-07T01:34:26;13.00;;;9.07;;
19402;SDS011;9837;48.888;8.998;2023-04-07T01:36:54;12.83;;;9.50;;
19402;SDS011;9837;48.888;8.998;2023-04-07T01:39:21;15.30;;;10.43;;
19402;SDS011;9837;48.888;8.998;2023-04-07T01:41:48;13.33;;;8.97;;
19402;SDS011;9837;48.888;8.998;2023-04-07T01:44:16;13.67;;;9.63;;
19402;SDS011;9837;48.888;8.998;2023-04-07T01:46:43;12.87;;;10.73;;
19402;SDS011;9837;48.888;8.998;2023-04-07T01:49:09;14.93;;;11.23;;
19402;SDS011;9837;48.888;8.998;2023-04-07T01:51:36;14.13;;;10.13;;
19402;SDS011;9837;48.888;8.998;2023-04-07T01:54:04;15.80;;;11.13;;
19402;SDS011;9837;48.888;8.998;2023-04-07T01:56:30;12.80;;;9.87;;
19402;SDS011;9837;48.888;8.998;2023-04-07T01:58:55;15.77;;;9.97;;
19402;SDS011;9837;48.888;8.998;2023-04-07T02:01:21;16.67;;;10.27;;
19402;SDS011;9837;48.888;8.998;2023-04-07T02:03:55;15.20;;;9.60;;
19402;SDS011;9837;48.888;8.998;2023-04-07T02:06:27;18.00;;;9.57;;
19402;SDS011;9837;48.888;8.998;2023-04-07T02:08:58;13.97;;;9.70;;
19402;SDS011;9837;48.888;8.998;2023-04-07T02:11:28;18.07;;;12.70;;
19402;SDS011;9837;48.888;8.998;2023-04-07T02:13:57;12.50;;;9.07;;
19402;SDS011;9837;48.888;8.998;2023-04-07T02:16:27;17.57;;;10.50;;
19402;SDS011;9837;48.888;8.998;2023-04-07T02:18:55;12.73;;;8.97;;
19402;SDS011;9837;48.888;8.998;2023-04-07T02:21:21;12.90;;;9.30;;
19402;SDS011;9837;48.888;8.998;2023-04-07T02:23:47;12.50;;;10.60;;
19402;SDS011;9837;48.888;8.998;2023-04-07T02:26:13;12.70;;;8.20;;
19402;SDS011;9837;48.888;8.998;2023-04-07T02:28:38;11.67;;;9.33;;
19402;SDS011;9837;48.888;8.998;2023-04-07T02:31:04;16.30;;;9.83;;
19402;SDS011;9837;48.888;8.998;2023-04-07T02:33:29;15.13;;;11.37;;
19402;SDS011;9837;48.888;8.998;2023-04-07T02:35:55;15.03;;;9.23;;
19402;SDS011;9837;48.888;8.998;2023-04-07T02:38:21;11.87;;;8.67;;
19402;SDS011;9837;48.888;8.998;2023-04-07T02:40:46;14.10;;;9.97;;
19402;SDS011;9837;48.888;8.998;2023-04-07T02:43:12;11.40;;;8.83;;
19402;SDS011;9837;48.888;8.998;2023-04-07T02:45:38;13.53;;;9.27;;
19402;SDS011;9837;48.888;8.998;2023-04-07T02:48:07;13.63;;;9.67;;
19402;SDS011;9837;48.888;8.998;2023-04-07T02:50:33;13.60;;;10.37;;
19402;SDS011;9837;48.888;8.998;2023-04-07T02:52:58;11.80;;;9.00;;
19402;SDS011;9837;48.888;8.998;2023-04-07T02:55:24;14.47;;;9.33;;
19402;SDS011;9837;48.888;8.998;2023-04-07T02:57:50;14.90;;;9.67;;
19402;SDS011;9837;48.888;8.998;2023-04-07T03:00:15;14.17;;;9.03;;
19402;SDS011;9837;48.888;8.998;2023-04-07T03:02:41;12.53;;;9.53;;
19402;SDS011;9837;48.888;8.998;2023-04-07T03:05:06;16.17;;;11.13;;
19402;SDS011;9837;48.888;8.998;2023-04-07T03:07:33;13.50;;;11.00;;
19402;SDS011;9837;48.888;8.998;2023-04-07T03:09:58;12.50;;;8.67;;
19402;SDS011;9837;48.888;8.998;2023-04-07T03:12:24;18.93;;;10.67;;
19402;SDS011;9837;48.888;8.998;2023-04-07T03:14:50;14.53;;;10.40;;
19402;SDS011;9837;48.888;8.998;2023-04-07T03:17:15;14.90;;;9.90;;
19402;SDS011;9837;48.888;8.998;2023-04-07T03:19:41;13.73;;;9.27;;
19402;SDS011;9837;48.888;8.998;2023-04-07T03:22:06;13.57;;;9.43;;
19402;SDS011;9837;48.888;8.998;2023-04-07T03:24:32;14.40;;;9.17;;
19402;SDS011;9837;48.888;8.998;2023-04-07T03:26:58;13.83;;;9.33;;
19402;SDS011;9837;48.888;8.998;2023-04-07T03:29:23;13.30;;;9.03;;
19402;SDS011;9837;48.888;8.998;2023-04-07T03:31:49;14.13;;;9.83;;
19402;SDS011;9837;48.888;8.998;2023-04-07T03:34:14;11.80;;;8.63;;
19402;SDS011;9837;48.888;8.998;2023-04-07T03:36:40;12.40;;;9.13;;
19402;SDS011;9837;48.888;8.998;2023-04-07T03:39:05;14.63;;;9.63;;
19402;SDS011;9837;48.888;8.998;2023-04-07T03:41:31;12.03;;;9.07;;
19402;SDS011;9837;48.888;8.998;2023-04-07T03:43:56;13.90;;;10.20;;
19402;SDS011;9837;48.888;8.998;2023-04-07T03:46:22;14.40;;;10.20;;
19402;SDS011;9837;48.888;8.998;2023-04-07T03:48:48;14.13;;;9.07;;
19402;SDS011;9837;48.888;8.998;2023-04-07T03:51:14;13.07;;;9.87;;
19402;SDS011;9837;48.888;8.998;2023-04-07T03:53:39;13.63;;;9.63;;
19402;SDS011;9837;48.888;8.998;2023-04-07T03:56:05;17.30;;;9.53;;
19402;SDS011;9837;48.888;8.998;2023-04-07T03:58:31;14.17;;;10.20;;
19402;SDS011;9837;48.888;8.998;2023-04-07T04:00:56;14.80;;;10.73;;
19402;SDS011;9837;48.888;8.998;2023-04-07T04:03:22;16.23;;;8.83;;
19402;SDS011;9837;48.888;8.998;2023-04-07T04:05:47;15.33;;;9.80;;
19402;SDS011;9837;48.888;8.998;2023-04-07T04:08:13;15.83;;;9.13;;
19402;SDS011;9837;48.888;8.998;2023-04-07T04:10:39;14.57;;;10.97;;
19402;SDS011;9837;48.888;8.998;2023-04-07T04:13:04;13.57;;;9.47;;
19402;SDS011;9837;48.888;8.998;2023-04-07T04:15:31;13.30;;;9.63;;
19402;SDS011;9837;48.888;8.998;2023-04-07T04:17:57;13.27;;;10.30;;
19402;SDS011;9837;48.888;8.998;2023-04-07T04:20:23;17.17;;;11.97;;
19402;SDS011;9837;48.888;8.998;2023-04-07T04:22:48;14.27;;;9.77;;
19402;SDS011;9837;48.888;8.998;2023-04-07T04:25:15;15.00;;;10.03;;
19402;SDS011;9837;48.888;8.998;2023-04-07T04:27:41;16.93;;;8.87;;
19402;SDS011;9837;48.888;8.998;2023-04-07T04:30:06;14.57;;;10.10;;
19402;SDS011;9837;48.888;8.998;2023-04-07T04:32:32;14.67;;;9.47;;
19402;SDS011;9837;48.888;8.998;2023-04-07T04:34:58;15.80;;;10.10;;
19402;SDS011;9837;48.888;8.998;2023-04-07T04:37:24;17.60;;;9.30;;
19402;SDS011;9837;48.888;8.998;2023-04-07T04:39:50;10.77;;;7.90;;
19402;SDS011;9837;48.888;8.998;2023-04-07T04:42:15;11.77;;;8.43;;
19402;SDS011;9837;48.888;8.998;2023-04-07T04:44:41;14.37;;;8.60;;
19402;SDS011;9837;48.888;8.998;2023-04-07T04:47:06;12.27;;;9.30;;
19402;SDS011;9837;48.888;8.998;2023-04-07T04:49:32;15.03;;;9.50;;
19402;SDS011;9837;48.888;8.998;2023-04-07T04:51:57;13.63;;;10.10;;
19402;SDS011;9837;48.888;8.998;2023-04-07T04:54:23;12.10;;;9.33;;
19402;SDS011;9837;48.888;8.998;2023-04-07T04:56:49;13.53;;;9.60;;
19402;SDS011;9837;48.888;8.998;2023-04-07T04:59:15;20.00;;;9.80;;
19402;SDS011;9837;48.888;8.998;2023-04-07T05:01:40;13.40;;;9.63;;
19402;SDS011;9837;48.888;8.998;2023-04-07T05:04:06;16.53;;;9.33;;
19402;SDS011;9837;48.888;8.998;2023-04-07T05:06:33;12.53;;;9.70;;
19402;SDS011;9837;48.888;8.998;2023-04-07T05:08:58;13.93;;;9.57;;
19402;SDS011;9837;48.888;8.998;2023-04-07T05:11:24;14.77;;;10.77;;
19402;SDS011;9837;48.888;8.998;2023-04-07T05:13:50;13.83;;;10.40;;
19402;SDS011;9837;48.888;8.998;2023-04-07T05:16:16;14.57;;;9.67;;
19402;SDS011;9837;48.888;8.998;2023-04-07T05:18:41;14.77;;;10.03;;
19402;SDS011;9837;48.888;8.998;2023-04-07T05:21:07;15.20;;;9.83;;
19402;SDS011;9837;48.888;8.998;2023-04-07T05:23:32;18.40;;;10.07;;
19402;SDS011;9837;48.888;8.998;2023-04-07T05:25:58;14.20;;;10.03;;
19402;SDS011;9837;48.888;8.998;2023-04-07T05:28:23;15.60;;;9.53;;
19402;SDS011;9837;48.888;8.998;2023-04-07T05:30:49;20.63;;;13.27;;
19402;SDS011;9837;48.888;8.998;2023-04-07T05:33:15;17.90;;;10.97;;
19402;SDS011;9837;48.888;8.998;2023-04-07T05:35:42;15.57;;;11.07;;
19402;SDS011;9837;48.888;8.998;2023-04-07T05:38:09;14.90;;;9.43;;
19402;SDS011;9837;48.888;8.998;2023-04-07T05:40:35;14.87;;;10.17;;
19402;SDS011;9837;48.888;8.998;2023-04-07T05:43:01;13.53;;;10.20;;
19402;SDS011;9837;48.888;8.998;2023-04-07T05:45:26;13.83;;;9.50;;
19402;SDS011;9837;48.888;8.998;2023-04-07T05:47:52;16.17;;;10.87;;
19402;SDS011;9837;48.888;8.998;2023-04-07T05:50:17;13.33;;;9.33;;
19402;SDS011;9837;48.888;8.998;2023-04-07T05:52:43;15.87;;;10.97;;
19402;SDS011;9837;48.888;8.998;2023-04-07T05:55:08;12.43;;;9.27;;
19402;SDS011;9837;48.888;8.998;2023-04-07T05:57:34;13.90;;;9.63;;
19402;SDS011;9837;48.888;8.998;2023-04-07T06:00:00;14.80;;;11.13;;
19402;SDS011;9837;48.888;8.998;2023-04-07T06:02:25;13.47;;;10.10;;
19402;SDS011;9837;48.888;8.998;2023-04-07T06:04:51;12.83;;;10.30;;
19402;SDS011;9837;48.888;8.998;2023-04-07T06:07:17;14.43;;;9.47;;
19402;SDS011;9837;48.888;8.998;2023-04-07T06:09:42;16.60;;;10.20;;
19402;SDS011;9837;48.888;8.998;2023-04-07T06:12:08;17.07;;;11.97;;
19402;SDS011;9837;48.888;8.998;2023-04-07T06:14:36;21.53;;;13.50;;
19402;SDS011;9837;48.888;8.998;2023-04-07T06:17:01;21.47;;;12.77;;
19402;SDS011;9837;48.888;8.998;2023-04-07T06:19:27;16.07;;;10.67;;
19402;SDS011;9837;48.888;8.998;2023-04-07T06:21:53;13.67;;;9.00;;
19402;SDS011;9837;48.888;8.998;2023-04-07T06:24:18;12.63;;;9.00;;
19402;SDS011;9837;48.888;8.998;2023-04-07T06:26:46;14.23;;;9.87;;
19402;SDS011;9837;48.888;8.998;2023-04-07T06:29:13;12.57;;;9.37;;
19402;SDS011;9837;48.888;8.998;2023-04-07T06:31:39;12.37;;;9.30;;
19402;SDS011;9837;48.888;8.998;2023-04-07T06:34:04;9.47;;;7.60;;
19402;SDS011;9837;48.888;8.998;2023-04-07T06:36:30;11.93;;;8.13;;
19402;SDS011;9837;48.888;8.998;2023-04-07T06:38:56;9.50;;;7.33;;
19402;SDS011;9837;48.888;8.998;2023-04-07T06:41:22;12.63;;;7.87;;
19402;SDS011;9837;48.888;8.998;2023-04-07T06:43:48;13.63;;;7.97;;
19402;SDS011;9837;48.888;8.998;2023-04-07T06:46:17;11.27;;;7.70;;
19402;SDS011;9837;48.888;8.998;2023-04-07T06:48:43;8.60;;;6.70;;
19402;SDS011;9837;48.888;8.998;2023-04-07T06:51:09;7.87;;;6.33;;
19402;SDS011;9837;48.888;8.998;2023-04-07T06:53:35;7.97;;;6.87;;
19402;SDS011;9837;48.888;8.998;2023-04-07T06:56:04;8.57;;;6.27;;
19402;SDS011;9837;48.888;8.998;2023-04-07T06:58:31;7.57;;;6.00;;
19402;SDS011;9837;48.888;8.998;2023-04-07T07:00:57;6.93;;;5.50;;
19402;SDS011;9837;48.888;8.998;2023-04-07T07:03:22;8.20;;;5.73;;
19402;SDS011;9837;48.888;8.998;2023-04-07T07:05:50;7.70;;;6.10;;
19402;SDS011;9837;48.888;8.998;2023-04-07T07:08:16;9.13;;;7.40;;
19402;SDS011;9837;48.888;8.998;2023-04-07T07:10:42;7.53;;;5.57;;
19402;SDS011;9837;48.888;8.998;2023-04-07T07:45:12;9.27;;;5.03;;
19402;SDS011;9837;48.888;8.998;2023-04-07T07:47:39;6.20;;;4.20;;
19402;SDS011;9837;48.888;8.998;2023-04-07T07:50:05;5.37;;;3.63;;
19402;SDS011;9837;48.888;8.998;2023-04-07T07:52:31;5.07;;;4.23;;
19402;SDS011;9837;48.888;8.998;2023-04-07T07:54:57;6.53;;;4.00;;
19402;SDS011;9837;48.888;8.998;2023-04-07T07:57:23;7.40;;;3.60;;
19402;SDS011;9837;48.888;8.998;2023-04-07T07:59:49;5.57;;;4.40;;
19402;SDS011;9837;48.888;8.998;2023-04-07T08:02:15;5.80;;;4.03;;
19402;SDS011;9837;48.888;8.998;2023-04-07T08:04:41;6.00;;;4.40;;
19402;SDS011;9837;48.888;8.998;2023-04-07T08:07:07;6.33;;;4.87;;
19402;SDS011;9837;48.888;8.998;2023-04-07T08:09:33;7.27;;;4.10;;
19402;SDS011;9837;48.888;8.998;2023-04-07T08:11:59;5.30;;;4.00;;
19402;SDS011;9837;48.888;8.998;2023-04-07T08:14:25;5.63;;;3.90;;
19402;SDS011;9837;48.888;8.998;2023-04-07T08:16:51;5.33;;;4.13;;
19402;SDS011;9837;48.888;8.998;2023-04-07T08:19:17;6.73;;;4.33;;
19402;SDS011;9837;48.888;8.998;2023-04-07T08:21:43;6.43;;;4.73;;
19402;SDS011;9837;48.888;8.998;2023-04-07T08:24:09;8.37;;;3.97;;
19402;SDS011;9837;48.888;8.998;2023-04-07T08:26:35;7.80;;;3.53;;
19402;SDS011;9837;48.888;8.998;2023-04-07T08:29:01;4.33;;;3.63;;
19402;SDS011;9837;48.888;8.998;2023-04-07T08:31:27;3.93;;;3.50;;
19402;SDS011;9837;48.888;8.998;2023-04-07T08:33:53;5.97;;;3.90;;
19402;SDS011;9837;48.888;8.998;2023-04-07T08:36:22;8.87;;;5.57;;
19402;SDS011;9837;48.888;8.998;2023-04-07T08:38:48;7.07;;;4.53;;
19402;SDS011;9837;48.888;8.998;2023-04-07T08:41:23;7.20;;;4.13;;
19402;SDS011;9837;48.888;8.998;2023-04-07T08:43:52;6.13;;;4.37;;
19402;SDS011;9837;48.888;8.998;2023-04-07T08:46:18;5.10;;;3.90;;
19402;SDS011;9837;48.888;8.998;2023-04-07T08:48:47;5.10;;;4.20;;
19402;SDS011;9837;48.888;8.998;2023-04-07T08:51:15;7.20;;;3.80;;
19402;SDS011;9837;48.888;8.998;2023-04-07T08:53:47;6.97;;;4.20;;
19402;SDS011;9837;48.888;8.998;2023-04-07T08:56:16;7.63;;;4.10;;
19402;SDS011;9837;48.888;8.998;2023-04-07T08:58:42;9.03;;;4.07;;
19402;SDS011;9837;48.888;8.998;2023-04-07T09:01:09;5.00;;;4.23;;
19402;SDS011;9837;48.888;8.998;2023-04-07T09:03:35;4.83;;;4.20;;
19402;SDS011;9837;48.888;8.998;2023-04-07T09:06:01;6.03;;;4.67;;
19402;SDS011;9837;48.888;8.998;2023-04-07T09:08:28;5.67;;;4.40;;
19402;SDS011;9837;48.888;8.998;2023-04-07T09:10:55;5.87;;;4.13;;
19402;SDS011;9837;48.888;8.998;2023-04-07T09:13:21;8.50;;;4.30;;
19402;SDS011;9837;48.888;8.998;2023-04-07T09:15:47;6.13;;;3.67;;
19402;SDS011;9837;48.888;8.998;2023-04-07T09:18:13;6.03;;;3.77;;
19402;SDS011;9837;48.888;8.998;2023-04-07T09:20:59;4.27;;;3.67;;
19402;SDS011;9837;48.888;8.998;2023-04-07T09:23:26;5.77;;;3.50;;
19402;SDS011;9837;48.888;8.998;2023-04-07T09:25:53;6.13;;;3.73;;
19402;SDS011;9837;48.888;8.998;2023-04-07T09:28:19;5.30;;;3.13;;
19402;SDS011;9837;48.888;8.998;2023-04-07T09:30:53;3.53;;;2.57;;
19402;SDS011;9837;48.888;8.998;2023-04-07T09:33:28;8.37;;;3.10;;
19402;SDS011;9837;48.888;8.998;2023-04-07T09:35:54;4.20;;;2.93;;
19402;SDS011;9837;48.888;8.998;2023-04-07T09:38:21;4.37;;;2.63;;
19402;SDS011;9837;48.888;8.998;2023-04-07T09:40:47;4.30;;;2.40;;
19402;SDS011;9837;48.888;8.998;2023-04-07T09:43:17;3.67;;;2.87;;
19402;SDS011;9837;48.888;8.998;2023-04-07T09:45:43;4.53;;;2.43;;
19402;SDS011;9837;48.888;8.998;2023-04-07T09:48:19;4.43;;;2.33;;
19402;SDS011;9837;48.888;8.998;2023-04-07T09:50:45;2.70;;;1.90;;
19402;SDS011;9837;48.888;8.998;2023-04-07T09:53:15;6.27;;;2.13;;
19402;SDS011;9837;48.888;8.998;2023-04-07T09:55:43;4.23;;;2.80;;
19402;SDS011;9837;48.888;8.998;2023-04-07T09:58:12;4.03;;;2.40;;
19402;SDS011;9837;48.888;8.998;2023-04-07T10:00:39;5.60;;;2.27;;
19402;SDS011;9837;48.888;8.998;2023-04-07T10:03:06;5.30;;;2.97;;
19402;SDS011;9837;48.888;8.998;2023-04-07T10:05:32;4.37;;;2.90;;
19402;SDS011;9837;48.888;8.998;2023-04-07T10:08:00;3.90;;;2.50;;
19402;SDS011;9837;48.888;8.998;2023-04-07T10:10:26;6.57;;;3.17;;
19402;SDS011;9837;48.888;8.998;2023-04-07T10:12:53;4.27;;;2.80;;
19402;SDS011;9837;48.888;8.998;2023-04-07T10:15:19;5.47;;;3.30;;
19402;SDS011;9837;48.888;8.998;2023-04-07T10:17:46;10.07;;;3.40;;
19402;SDS011;9837;48.888;8.998;2023-04-07T10:20:12;4.80;;;2.60;;
19402;SDS011;9837;48.888;8.998;2023-04-07T10:22:40;5.73;;;2.60;;
19402;SDS011;9837;48.888;8.998;2023-04-07T10:25:07;5.60;;;2.97;;
19402;SDS011;9837;48.888;8.998;2023-04-07T10:27:46;5.50;;;2.87;;
19402;SDS011;9837;48.888;8.998;2023-04-07T10:30:27;4.20;;;2.87;;
19402;SDS011;9837;48.888;8.998;2023-04-07T10:32:53;5.00;;;4.07;;
19402;SDS011;9837;48.888;8.998;2023-04-07T10:35:20;5.73;;;3.27;;
19402;SDS011;9837;48.888;8.998;2023-04-07T10:38:08;4.07;;;3.53;;
19402;SDS011;9837;48.888;8.998;2023-04-07T10:40:34;8.27;;;4.20;;
19402;SDS011;9837;48.888;8.998;2023-04-07T10:43:00;6.20;;;3.53;;
19402;SDS011;9837;48.888;8.998;2023-04-07T10:48:18;7.67;;;3.43;;
19402;SDS011;9837;48.888;8.998;2023-04-07T10:50:45;5.00;;;3.87;;
19402;SDS011;9837;48.888;8.998;2023-04-07T10:53:12;8.00;;;3.70;;
19402;SDS011;9837;48.888;8.998;2023-04-07T10:55:42;8.33;;;3.93;;
19402;SDS011;9837;48.888;8.998;2023-04-07T10:58:24;6.80;;;3.93;;
19402;SDS011;9837;48.888;8.998;2023-04-07T11:03:22;7.53;;;4.43;;
19402;SDS011;9837;48.888;8.998;2023-04-07T11:05:49;6.27;;;4.57;;
19402;SDS011;9837;48.888;8.998;2023-04-07T11:08:28;7.87;;;5.23;;
19402;SDS011;9837;48.888;8.998;2023-04-07T11:10:56;8.50;;;4.03;;
19402;SDS011;9837;48.888;8.998;2023-04-07T11:13:22;5.67;;;4.03;;
19402;SDS011;9837;48.888;8.998;2023-04-07T11:15:48;7.07;;;3.60;;
19402;SDS011;9837;48.888;8.998;2023-04-07T11:18:18;3.20;;;2.80;;
19402;SDS011;9837;48.888;8.998;2023-04-07T11:23:11;4.20;;;2.83;;
19402;SDS011;9837;48.888;8.998;2023-04-07T11:25:37;8.60;;;3.53;;
19402;SDS011;9837;48.888;8.998;2023-04-07T11:28:03;7.47;;;3.00;;
19402;SDS011;9837;48.888;8.998;2023-04-07T11:30:29;5.67;;;2.10;;
19402;SDS011;9837;48.888;8.998;2023-04-07T11:32:55;2.67;;;2.20;;
19402;SDS011;9837;48.888;8.998;2023-04-07T11:35:22;6.17;;;2.43;;
19402;SDS011;9837;48.888;8.998;2023-04-07T11:37:48;7.27;;;3.57;;
19402;SDS011;9837;48.888;8.998;2023-04-07T11:40:29;8.23;;;3.10;;
19402;SDS011;9837;48.888;8.998;2023-04-07T11:42:58;4.50;;;2.50;;
19402;SDS011;9837;48.888;8.998;2023-04-07T11:45:25;5.80;;;2.80;;
19402;SDS011;9837;48.888;8.998;2023-04-07T11:47:51;5.13;;;2.40;;
19402;SDS011;9837;48.888;8.998;2023-04-07T11:50:36;5.80;;;2.70;;
19402;SDS011;9837;48.888;8.998;2023-04-07T11:53:03;5.30;;;2.70;;
19402;SDS011;9837;48.888;8.998;2023-04-07T11:55:28;7.90;;;2.57;;
19402;SDS011;9837;48.888;8.998;2023-04-07T11:57:54;10.47;;;2.30;;
19402;SDS011;9837;48.888;8.998;2023-04-07T12:00:21;8.97;;;2.97;;
19402;SDS011;9837;48.888;8.998;2023-04-07T12:02:47;4.13;;;2.73;;
19402;SDS011;9837;48.888;8.998;2023-04-07T12:05:13;6.10;;;4.03;;
19402;SDS011;9837;48.888;8.998;2023-04-07T12:07:39;7.43;;;4.73;;
19402;SDS011;9837;48.888;8.998;2023-04-07T12:10:18;8.70;;;4.00;;
19402;SDS011;9837;48.888;8.998;2023-04-07T12:12:49;8.93;;;4.50;;
19402;SDS011;9837;48.888;8.998;2023-04-07T12:15:16;4.07;;;3.73;;
19402;SDS011;9837;48.888;8.998;2023-04-07T12:17:45;5.67;;;4.17;;
19402;SDS011;9837;48.888;8.998;2023-04-07T12:20:12;7.27;;;4.37;;
19402;SDS011;9837;48.888;8.998;2023-04-07T12:22:39;5.97;;;3.60;;
19402;SDS011;9837;48.888;8.998;2023-04-07T12:25:05;5.60;;;3.40;;
19402;SDS011;9837;48.888;8.998;2023-04-07T12:27:31;5.47;;;4.27;;
19402;SDS011;9837;48.888;8.998;2023-04-07T12:29:57;8.27;;;4.53;;
19402;SDS011;9837;48.888;8.998;2023-04-07T12:32:23;6.97;;;4.00;;
19402;SDS011;9837;48.888;8.998;2023-04-07T12:34:49;6.77;;;4.27;;
19402;SDS011;9837;48.888;8.998;2023-04-07T12:37:16;7.60;;;4.60;;
19402;SDS011;9837;48.888;8.998;2023-04-07T12:39:41;7.13;;;4.13;;
19402;SDS011;9837;48.888;8.998;2023-04-07T12:42:07;6.57;;;4.70;;
19402;SDS011;9837;48.888;8.998;2023-04-07T12:44:35;6.60;;;4.23;;
19402;SDS011;9837;48.888;8.998;2023-04-07T12:47:01;11.83;;;5.37;;
19402;SDS011;9837;48.888;8.998;2023-04-07T12:49:27;5.00;;;4.43;;
19402;SDS011;9837;48.888;8.998;2023-04-07T12:51:52;9.27;;;4.83;;
19402;SDS011;9837;48.888;8.998;2023-04-07T12:54:18;6.97;;;3.80;;
19402;SDS011;9837;48.888;8.998;2023-04-07T12:56:44;4.40;;;3.70;;
19402;SDS011;9837;48.888;8.998;2023-04-07T12:59:10;6.57;;;4.50;;
19402;SDS011;9837;48.888;8.998;2023-04-07T13:01:36;8.93;;;5.00;;
19402;SDS011;9837;48.888;8.998;2023-04-07T13:04:02;5.87;;;4.57;;
19402;SDS011;9837;48.888;8.998;2023-04-07T13:06:28;7.90;;;4.87;;
19402;SDS011;9837;48.888;8.998;2023-04-07T13:08:55;9.83;;;4.97;;
19402;SDS011;9837;48.888;8.998;2023-04-07T13:11:21;10.57;;;5.27;;
19402;SDS011;9837;48.888;8.998;2023-04-07T13:13:47;8.27;;;4.53;;
19402;SDS011;9837;48.888;8.998;2023-04-07T13:16:12;7.97;;;5.20;;
19402;SDS011;9837;48.888;8.998;2023-04-07T13:18:38;6.40;;;5.07;;
19402;SDS011;9837;48.888;8.998;2023-04-07T13:21:04;6.13;;;4.93;;
19402;SDS011;9837;48.888;8.998;2023-04-07T13:23:30;7.40;;;4.47;;
19402;SDS011;9837;48.888;8.998;2023-04-07T13:25:55;6.47;;;4.77;;
19402;SDS011;9837;48.888;8.998;2023-04-07T13:28:21;6.97;;;4.93;;
19402;SDS011;9837;48.888;8.998;2023-04-07T13:30:47;9.63;;;5.10;;
19402;SDS011;9837;48.888;8.998;2023-04-07T13:33:12;6.07;;;4.37;;
19402;SDS011;9837;48.888;8.998;2023-04-07T13:35:38;6.73;;;4.17;;
19402;SDS011;9837;48.888;8.998;2023-04-07T13:38:04;6.60;;;4.50;;
19402;SDS011;9837;48.888;8.998;2023-04-07T13:40:29;6.57;;;4.30;;
19402;SDS011;9837;48.888;8.998;2023-04-07T13:42:55;9.07;;;4.27;;
19402;SDS011;9837;48.888;8.998;2023-04-07T13:45:21;6.47;;;4.90;;
19402;SDS011;9837;48.888;8.998;2023-04-07T13:47:47;8.20;;;5.17;;
19402;SDS011;9837;48.888;8.998;2023-04-07T13:50:13;6.23;;;4.60;;
19402;SDS011;9837;48.888;8.998;2023-04-07T13:52:39;8.57;;;5.03;;
19402;SDS011;9837;48.888;8.998;2023-04-07T13:55:05;7.60;;;5.37;;
19402;SDS011;9837;48.888;8.998;2023-04-07T13:57:31;8.50;;;4.87;;
19402;SDS011;9837;48.888;8.998;2023-04-07T13:59:57;7.60;;;4.73;;
19402;SDS011;9837;48.888;8.998;2023-04-07T14:02:24;6.20;;;4.43;;
19402;SDS011;9837;48.888;8.998;2023-04-07T14:04:51;7.17;;;4.60;;
19402;SDS011;9837;48.888;8.998;2023-04-07T14:07:17;9.47;;;5.53;;
19402;SDS011;9837;48.888;8.998;2023-04-07T14:09:43;7.87;;;5.03;;
19402;SDS011;9837;48.888;8.998;2023-04-07T14:12:10;8.13;;;5.37;;
19402;SDS011;9837;48.888;8.998;2023-04-07T14:14:36;7.47;;;5.23;;
19402;SDS011;9837;48.888;8.998;2023-04-07T14:17:02;9.47;;;5.20;;
19402;SDS011;9837;48.888;8.998;2023-04-07T14:19:28;8.40;;;4.97;;
19402;SDS011;9837;48.888;8.998;2023-04-07T14:21:54;5.77;;;4.03;;
19402;SDS011;9837;48.888;8.998;2023-04-07T14:24:20;8.20;;;4.10;;
19402;SDS011;9837;48.888;8.998;2023-04-07T14:26:46;6.90;;;3.93;;
19402;SDS011;9837;48.888;8.998;2023-04-07T14:29:12;8.77;;;4.23;;
19402;SDS011;9837;48.888;8.998;2023-04-07T14:31:38;7.17;;;3.83;;
19402;SDS011;9837;48.888;8.998;2023-04-07T14:34:04;7.13;;;3.80;;
19402;SDS011;9837;48.888;8.998;2023-04-07T14:36:31;5.60;;;3.77;;
19402;SDS011;9837;48.888;8.998;2023-04-07T14:38:56;8.07;;;4.10;;
19402;SDS011;9837;48.888;8.998;2023-04-07T14:41:23;7.57;;;4.30;;
19402;SDS011;9837;48.888;8.998;2023-04-07T14:43:48;9.40;;;5.50;;
19402;SDS011;9837;48.888;8.998;2023-04-07T14:46:19;7.30;;;4.87;;
19402;SDS011;9837;48.888;8.998;2023-04-07T14:48:45;4.30;;;3.30;;
19402;SDS011;9837;48.888;8.998;2023-04-07T14:51:11;5.67;;;3.50;;
19402;SDS011;9837;48.888;8.998;2023-04-07T14:53:38;5.80;;;3.87;;
19402;SDS011;9837;48.888;8.998;2023-04-07T14:56:06;6.70;;;3.70;;
19402;SDS011;9837;48.888;8.998;2023-04-07T14:58:31;7.03;;;4.17;;
19402;SDS011;9837;48.888;8.998;2023-04-07T15:00:57;5.43;;;3.87;;
19402;SDS011;9837;48.888;8.998;2023-04-07T15:03:22;7.10;;;4.37;;
19402;SDS011;9837;48.888;8.998;2023-04-07T15:05:48;6.10;;;3.50;;
19402;SDS011;9837;48.888;8.998;2023-04-07T15:08:14;6.20;;;3.47;;
19402;SDS011;9837;48.888;8.998;2023-04-07T15:10:39;5.60;;;3.77;;
19402;SDS011;9837;48.888;8.998;2023-04-07T15:13:05;7.37;;;4.27;;
19402;SDS011;9837;48.888;8.998;2023-04-07T15:15:31;5.13;;;3.93;;
19402;SDS011;9837;48.888;8.998;2023-04-07T15:17:57;5.53;;;3.40;;
19402;SDS011;9837;48.888;8.998;2023-04-07T15:20:22;5.47;;;3.57;;
19402;SDS011;9837;48.888;8.998;2023-04-07T15:22:48;4.77;;;3.33;;
19402;SDS011;9837;48.888;8.998;2023-04-07T15:25:14;6.13;;;4.00;;
19402;SDS011;9837;48.888;8.998;2023-04-07T15:27:40;4.67;;;3.00;;
19402;SDS011;9837;48.888;8.998;2023-04-07T15:30:07;8.17;;;3.97;;
19402;SDS011;9837;48.888;8.998;2023-04-07T15:32:32;8.83;;;4.10;;
19402;SDS011;9837;48.888;8.998;2023-04-07T15:34:58;8.27;;;3.87;;